Westrac — WTH4325 — position and weather

sailwx.info

Track history (hours):
 
Tides and Currents Weather Stations Pressure Air Temp Water Temp Dewpoint Dewpoint Depression Visibility Wind Speed Wind Dir Waves Ship Positions

Westrac

Owner: WESTERN TOWBOAT CO, SEATTLE, WA. More information available from US FCC via Universal Licensing System and Coast Guard Vessel Documentation Center.

Last reported at 2016-Dec-07 15:34 UTC. Time now 2016-Dec-07 16:24 UTC.
Position N 47°34' W 122°21'.

Length 23 m; draft 5 m.

Type: Tug. MMSI: 366993010.

Date/timePositionNaut miles runAvg speedWind from/ knotsBaromVisibWave heightAir tempDewpointWater temp
2016-Dec-07 15:34N 47°34' W 122°21'2 1.6
2016-Dec-07 14:33N 47°35' W 122°22'1 1.1
2016-Dec-07 13:33N 47°34' W 122°21'0 0.0
2016-Dec-07 00:25N 47°34' W 122°21'1 1.2
2016-Dec-06 23:33N 47°33' W 122°20'0 0.2
2016-Dec-06 22:33N 47°33' W 122°21'0 0.1
2016-Dec-06 21:33N 47°33' W 122°21'0 0.2
2016-Dec-06 20:33N 47°33' W 122°20'1 0.3
2016-Dec-06 18:33N 47°34' W 122°21'1 0.7
2016-Dec-06 17:33N 47°33' W 122°20'1 1.1
2016-Dec-06 16:33N 47°34' W 122°21'1 1.1
2016-Dec-06 15:33N 47°33' W 122°20'1 1.2
2016-Dec-06 14:33N 47°34' W 122°21'0 0.0
2016-Dec-06 00:03N 47°34' W 122°21'0 0.5
2016-Dec-05 23:33N 47°34' W 122°21'2 1.6
2016-Dec-05 22:33N 47°32' W 122°20'3 3.4
2016-Dec-05 21:33N 47°35' W 122°22'1 1.0
2016-Dec-05 20:33N 47°35' W 122°22'1 1.3
2016-Dec-05 19:33N 47°36' W 122°23'5 5.2
2016-Dec-05 18:33N 47°41' W 122°25'1 0.9
2016-Dec-05 17:33N 47°40' W 122°24'2 1.9
2016-Dec-05 16:33N 47°38' W 122°26'6 5.6
2016-Dec-05 15:33N 47°34' W 122°21'1 1.3
2016-Dec-05 14:33N 47°35' W 122°22'1 1.2
2016-Dec-05 13:34N 47°34' W 122°21'0 0.0
2016-Dec-05 02:05N 47°34' W 122°21'1 2.5
2016-Dec-05 01:34N 47°35' W 122°22'0 0.1
2016-Dec-04 19:33N 47°36' W 122°22'3 3.0
2016-Dec-04 18:33N 47°33' W 122°20'3 2.6
2016-Dec-04 17:33N 47°35' W 122°21'1 1.1
2016-Dec-04 16:33N 47°34' W 122°21'0 0.0
2016-Dec-03 15:33N 47°35' W 122°21'1 0.6
2016-Dec-03 14:33N 47°34' W 122°21'0 0.0
2016-Dec-03 13:34N 47°34' W 122°21'0 0.0
2016-Dec-03 12:33N 47°34' W 122°21'0 0.0
2016-Dec-03 11:33N 47°34' W 122°21'0 0.0
2016-Dec-03 10:33N 47°34' W 122°21'0 0.0
2016-Dec-03 09:33N 47°34' W 122°21'0 0.0
2016-Dec-03 08:33N 47°34' W 122°21'0 0.0
2016-Dec-03 07:33N 47°34' W 122°21'2 1.9
2016-Dec-03 06:33N 47°36' W 122°22'2 1.9
2016-Dec-03 05:33N 47°34' W 122°21'0 0.0
2016-Dec-03 04:34N 47°34' W 122°21'1 0.8
2016-Dec-03 03:33N 47°33' W 122°21'3 2.6
2016-Dec-03 02:33N 47°36' W 122°22'3 3.0
2016-Dec-03 01:33N 47°33' W 122°20'2 2.5
2016-Dec-03 00:33N 47°35' W 122°22'3 2.6
2016-Dec-02 23:33N 47°33' W 122°20'4 3.6
2016-Dec-02 22:33N 47°36' W 122°23'2 2.2
2016-Dec-02 21:33N 47°34' W 122°21'0 0.0
2016-Dec-02 20:33N 47°34' W 122°21'0 0.0
2016-Dec-02 19:33N 47°34' W 122°21'0 0.0
2016-Dec-02 18:33N 47°34' W 122°21'0 0.0
2016-Dec-02 01:26N 47°34' W 122°21'1 1.1
2016-Dec-02 00:34N 47°33' W 122°21'0 0.2
2016-Dec-01 23:34N 47°33' W 122°21'1 0.9
2016-Dec-01 22:34N 47°33' W 122°20'3 3.4
2016-Dec-01 21:34N 47°36' W 122°21'1 0.7
2016-Dec-01 20:34N 47°35' W 122°20'2 2.0
2016-Dec-01 19:34N 47°33' W 122°21'1 1.0
2016-Dec-01 18:34N 47°32' W 122°20'3 2.6
2016-Dec-01 17:34N 47°35' W 122°22'1 1.0
2016-Dec-01 16:34N 47°34' W 122°21'0 0.1
2016-Dec-01 15:34N 47°34' W 122°21'2 1.8
2016-Dec-01 14:34N 47°35' W 122°22'2 0.2
2016-Dec-01 02:33N 47°34' W 122°21'1 0.5
2016-Dec-01 01:33N 47°34' W 122°21'2 2.2
2016-Dec-01 00:33N 47°35' W 122°22'2 1.6
2016-Nov-30 23:34N 47°34' W 122°21'0 0.1
2016-Nov-30 22:33N 47°34' W 122°21'1 0.8
2016-Nov-30 21:33N 47°33' W 122°21'3 2.6
2016-Nov-30 20:33N 47°36' W 122°22'3 3.2
2016-Nov-30 19:33N 47°33' W 122°20'4 3.6
2016-Nov-30 18:34N 47°36' W 122°22'3 3.5
2016-Nov-30 17:33N 47°33' W 122°20'3 2.5
2016-Nov-30 16:33N 47°35' W 122°21'2 1.7
2016-Nov-30 15:33N 47°34' W 122°21'1 0.6
2016-Nov-30 14:34N 47°34' W 122°21'0 0.0
2016-Nov-30 13:34N 47°34' W 122°21'0 0.0
2016-Nov-30 12:34N 47°34' W 122°21'0 0.0
2016-Nov-30 11:33N 47°34' W 122°21'0 0.2
2016-Nov-30 10:34N 47°34' W 122°21'0 0.2
2016-Nov-30 09:33N 47°34' W 122°21'0 0.0
2016-Nov-30 08:34N 47°34' W 122°21'0 0.0
2016-Nov-30 07:34N 47°34' W 122°21'0 0.0
2016-Nov-30 06:33N 47°34' W 122°21'0 0.0
2016-Nov-30 05:33N 47°34' W 122°21'0 0.0
2016-Nov-30 04:34N 47°34' W 122°21'0 0.0
2016-Nov-30 03:33N 47°34' W 122°21'0 0.0
2016-Nov-30 02:34N 47°34' W 122°21'2 1.6
2016-Nov-30 01:34N 47°35' W 122°22'1 1.2
2016-Nov-30 00:34N 47°35' W 122°20'1 0.8
2016-Nov-29 23:34N 47°36' W 122°21'1 0.8
2016-Nov-29 22:33N 47°35' W 122°21'0 0.3
2016-Nov-29 21:34N 47°35' W 122°21'1 1.1
2016-Nov-29 20:34N 47°34' W 122°21'1 0.1
2016-Nov-29 08:33N 47°35' W 122°22'1 1.3
2016-Nov-29 07:33N 47°34' W 122°21'0 0.0
2016-Nov-29 06:33N 47°34' W 122°21'0 0.0
2016-Nov-29 05:33N 47°34' W 122°21'0 0.0
2016-Nov-29 04:33N 47°34' W 122°21'0 0.0
2016-Nov-29 03:33N 47°34' W 122°21'2 1.6
2016-Nov-29 02:34N 47°36' W 122°22'1 0.6
2016-Nov-29 01:33N 47°36' W 122°22'0 0.3
2016-Nov-29 00:33N 47°36' W 122°22'5 5.0
2016-Nov-28 23:33N 47°39' W 122°28'5 5.4
2016-Nov-28 22:33N 47°35' W 122°22'1 0.5
2016-Nov-28 21:33N 47°35' W 122°22'0 0.2
2016-Nov-28 20:33N 47°35' W 122°22'1 0.5
2016-Nov-28 19:33N 47°36' W 122°21'0 0.4
2016-Nov-28 18:33N 47°35' W 122°20'0 0.0
2016-Nov-28 17:33N 47°35' W 122°20'0 0.0
2016-Nov-28 16:33N 47°35' W 122°20'  
Track history (hours):
 
Tides and Currents Weather Stations Pressure Air Temp Water Temp Dewpoint Dewpoint Depression Visibility Wind Speed Wind Dir Waves Ship Positions

Westrac

Owner: WESTERN TOWBOAT CO, SEATTLE, WA. More information available from US FCC via Universal Licensing System and Coast Guard Vessel Documentation Center.

Last reported at 2016-Dec-07 15:34 UTC. Time now 2016-Dec-07 16:24 UTC.
Position N 47°34' W 122°21'.

Length 23 m; draft 5 m.

Type: Tug. MMSI: 366993010.

Date/timePositionNaut miles runAvg speedWind from/ knotsBaromVisibWave heightAir tempDewpointWater temp
2016-Dec-07 15:34N 47°34' W 122°21'2 1.6
2016-Dec-07 14:33N 47°35' W 122°22'1 1.1
2016-Dec-07 13:33N 47°34' W 122°21'0 0.0
2016-Dec-07 00:25N 47°34' W 122°21'1 1.2
2016-Dec-06 23:33N 47°33' W 122°20'0 0.2
2016-Dec-06 22:33N 47°33' W 122°21'0 0.1
2016-Dec-06 21:33N 47°33' W 122°21'0 0.2
2016-Dec-06 20:33N 47°33' W 122°20'1 0.3
2016-Dec-06 18:33N 47°34' W 122°21'1 0.7
2016-Dec-06 17:33N 47°33' W 122°20'1 1.1
2016-Dec-06 16:33N 47°34' W 122°21'1 1.1
2016-Dec-06 15:33N 47°33' W 122°20'1 1.2
2016-Dec-06 14:33N 47°34' W 122°21'0 0.0
2016-Dec-06 00:03N 47°34' W 122°21'0 0.5
2016-Dec-05 23:33N 47°34' W 122°21'2 1.6
2016-Dec-05 22:33N 47°32' W 122°20'3 3.4
2016-Dec-05 21:33N 47°35' W 122°22'1 1.0
2016-Dec-05 20:33N 47°35' W 122°22'1 1.3
2016-Dec-05 19:33N 47°36' W 122°23'5 5.2
2016-Dec-05 18:33N 47°41' W 122°25'1 0.9
2016-Dec-05 17:33N 47°40' W 122°24'2 1.9
2016-Dec-05 16:33N 47°38' W 122°26'6 5.6
2016-Dec-05 15:33N 47°34' W 122°21'1 1.3
2016-Dec-05 14:33N 47°35' W 122°22'1 1.2
2016-Dec-05 13:34N 47°34' W 122°21'0 0.0
2016-Dec-05 02:05N 47°34' W 122°21'1 2.5
2016-Dec-05 01:34N 47°35' W 122°22'0 0.1
2016-Dec-04 19:33N 47°36' W 122°22'3 3.0
2016-Dec-04 18:33N 47°33' W 122°20'3 2.6
2016-Dec-04 17:33N 47°35' W 122°21'1 1.1
2016-Dec-04 16:33N 47°34' W 122°21'0 0.0
2016-Dec-03 15:33N 47°35' W 122°21'1 0.6
2016-Dec-03 14:33N 47°34' W 122°21'0 0.0
2016-Dec-03 13:34N 47°34' W 122°21'0 0.0
2016-Dec-03 12:33N 47°34' W 122°21'0 0.0
2016-Dec-03 11:33N 47°34' W 122°21'0 0.0
2016-Dec-03 10:33N 47°34' W 122°21'0 0.0
2016-Dec-03 09:33N 47°34' W 122°21'0 0.0
2016-Dec-03 08:33N 47°34' W 122°21'0 0.0
2016-Dec-03 07:33N 47°34' W 122°21'2 1.9
2016-Dec-03 06:33N 47°36' W 122°22'2 1.9
2016-Dec-03 05:33N 47°34' W 122°21'0 0.0
2016-Dec-03 04:34N 47°34' W 122°21'1 0.8
2016-Dec-03 03:33N 47°33' W 122°21'3 2.6
2016-Dec-03 02:33N 47°36' W 122°22'3 3.0
2016-Dec-03 01:33N 47°33' W 122°20'2 2.5
2016-Dec-03 00:33N 47°35' W 122°22'3 2.6
2016-Dec-02 23:33N 47°33' W 122°20'4 3.6
2016-Dec-02 22:33N 47°36' W 122°23'2 2.2
2016-Dec-02 21:33N 47°34' W 122°21'0 0.0
2016-Dec-02 20:33N 47°34' W 122°21'0 0.0
2016-Dec-02 19:33N 47°34' W 122°21'0 0.0
2016-Dec-02 18:33N 47°34' W 122°21'0 0.0
2016-Dec-02 01:26N 47°34' W 122°21'1 1.1
2016-Dec-02 00:34N 47°33' W 122°21'0 0.2
2016-Dec-01 23:34N 47°33' W 122°21'1 0.9
2016-Dec-01 22:34N 47°33' W 122°20'3 3.4
2016-Dec-01 21:34N 47°36' W 122°21'1 0.7
2016-Dec-01 20:34N 47°35' W 122°20'2 2.0
2016-Dec-01 19:34N 47°33' W 122°21'1 1.0
2016-Dec-01 18:34N 47°32' W 122°20'3 2.6
2016-Dec-01 17:34N 47°35' W 122°22'1 1.0
2016-Dec-01 16:34N 47°34' W 122°21'0 0.1
2016-Dec-01 15:34N 47°34' W 122°21'2 1.8
2016-Dec-01 14:34N 47°35' W 122°22'2 0.2
2016-Dec-01 02:33N 47°34' W 122°21'1 0.5
2016-Dec-01 01:33N 47°34' W 122°21'2 2.2
2016-Dec-01 00:33N 47°35' W 122°22'2 1.6
2016-Nov-30 23:34N 47°34' W 122°21'0 0.1
2016-Nov-30 22:33N 47°34' W 122°21'1 0.8
2016-Nov-30 21:33N 47°33' W 122°21'3 2.6
2016-Nov-30 20:33N 47°36' W 122°22'3 3.2
2016-Nov-30 19:33N 47°33' W 122°20'4 3.6
2016-Nov-30 18:34N 47°36' W 122°22'3 3.5
2016-Nov-30 17:33N 47°33' W 122°20'3 2.5
2016-Nov-30 16:33N 47°35' W 122°21'2 1.7
2016-Nov-30 15:33N 47°34' W 122°21'1 0.6
2016-Nov-30 14:34N 47°34' W 122°21'0 0.0
2016-Nov-30 13:34N 47°34' W 122°21'0 0.0
2016-Nov-30 12:34N 47°34' W 122°21'0 0.0
2016-Nov-30 11:33N 47°34' W 122°21'0 0.2
2016-Nov-30 10:34N 47°34' W 122°21'0 0.2
2016-Nov-30 09:33N 47°34' W 122°21'0 0.0
2016-Nov-30 08:34N 47°34' W 122°21'0 0.0
2016-Nov-30 07:34N 47°34' W 122°21'0 0.0
2016-Nov-30 06:33N 47°34' W 122°21'0 0.0
2016-Nov-30 05:33N 47°34' W 122°21'0 0.0
2016-Nov-30 04:34N 47°34' W 122°21'0 0.0
2016-Nov-30 03:33N 47°34' W 122°21'0 0.0
2016-Nov-30 02:34N 47°34' W 122°21'2 1.6
2016-Nov-30 01:34N 47°35' W 122°22'1 1.2
2016-Nov-30 00:34N 47°35' W 122°20'1 0.8
2016-Nov-29 23:34N 47°36' W 122°21'1 0.8
2016-Nov-29 22:33N 47°35' W 122°21'0 0.3
2016-Nov-29 21:34N 47°35' W 122°21'1 1.1
2016-Nov-29 20:34N 47°34' W 122°21'1 0.1
2016-Nov-29 08:33N 47°35' W 122°22'1 1.3
2016-Nov-29 07:33N 47°34' W 122°21'0 0.0
2016-Nov-29 06:33N 47°34' W 122°21'0 0.0
2016-Nov-29 05:33N 47°34' W 122°21'0 0.0
2016-Nov-29 04:33N 47°34' W 122°21'0 0.0
2016-Nov-29 03:33N 47°34' W 122°21'2 1.6
2016-Nov-29 02:34N 47°36' W 122°22'1 0.6
2016-Nov-29 01:33N 47°36' W 122°22'0 0.3
2016-Nov-29 00:33N 47°36' W 122°22'5 5.0
2016-Nov-28 23:33N 47°39' W 122°28'5 5.4
2016-Nov-28 22:33N 47°35' W 122°22'1 0.5
2016-Nov-28 21:33N 47°35' W 122°22'0 0.2
2016-Nov-28 20:33N 47°35' W 122°22'1 0.5
2016-Nov-28 19:33N 47°36' W 122°21'0 0.4
2016-Nov-28 18:33N 47°35' W 122°20'0 0.0
2016-Nov-28 17:33N 47°35' W 122°20'0 0.0
2016-Nov-28 16:33N 47°35' W 122°20'  

Dump ship's entire track history